This is the latest recevied weather packets stored in our database for station/object OK1FPA-13. If no packets are shown the sender has not sent any weather packets the latest 10 day(s).
| Time | Temp. | Humidity | Pressure | Rain* | Wind** | Luminosity | Snow |
|---|---|---|---|---|---|---|---|
| 1777529064 | 3.33° C | 52% | 1031.7 hPa | - | - | - | - |
| 1777528464 | 2.78° C | 55% | 1031.7 hPa | - | - | - | - |
| 1777527864 | 2.22° C | 57% | 1031.7 hPa | - | - | - | - |
| 1777527264 | 1.67° C | 58% | 1031.6 hPa | - | - | - | - |
| 1777526664 | 0.56° C | 63% | 1031.7 hPa | - | - | - | - |
| 1777526064 | 0° C | 67% | 1031.6 hPa | - | - | - | - |
| 1777525464 | -1.11° C | 72% | 1031.5 hPa | - | - | - | - |
| 1777524864 | -1.67° C | 76% | 1031.5 hPa | - | - | - | - |
| 1777524264 | -2.78° C | 81% | 1031.5 hPa | - | - | - | - |
| 1777523664 | -3.33° C | 81% | 1031.4 hPa | - | - | - | - |
| 1777523064 | -3.89° C | 82% | 1031.4 hPa | - | - | - | - |
| 1777522464 | -3.89° C | 82% | 1031.5 hPa | - | - | - | - |
| 1777521864 | -3.89° C | 77% | 1031.3 hPa | - | - | - | - |
| 1777521264 | -3.33° C | 74% | 1031.2 hPa | - | - | - | - |
| 1777520664 | -2.78° C | 70% | 1031.1 hPa | - | - | - | - |
| 1777520064 | -2.78° C | 71% | 1031 hPa | - | - | - | - |
| 1777519464 | -2.78° C | 72% | 1030.9 hPa | - | - | - | - |
| 1777518864 | -2.78° C | 71% | 1030.8 hPa | - | - | - | - |
| 1777518264 | -2.78° C | 71% | 1030.8 hPa | - | - | - | - |
| 1777517664 | -2.78° C | 69% | 1030.7 hPa | - | - | - | - |
| 1777517064 | -2.22° C | 69% | 1030.7 hPa | - | - | - | - |
| 1777516464 | -2.22° C | 69% | 1030.6 hPa | - | - | - | - |
| 1777515864 | -2.78° C | 70% | 1030.6 hPa | - | - | - | - |
| 1777515264 | -2.22° C | 66% | 1030.6 hPa | - | - | - | - |
| 1777514664 | -2.22° C | 67% | 1030.6 hPa | - | - | - | - |
* Rain since midnight (hover to see other rain measurements)
** Current wind speed in m/s (hover to see current wind gust speed)